sensor_id;sensor_type;location;lat;lon;timestamp;temperature;humidity
17697;DHT22;8967;47.984;7.842;2023-02-05T00:00:39;5.10;99.90
17697;DHT22;8967;47.984;7.842;2023-02-05T00:03:06;5.10;99.90
17697;DHT22;8967;47.984;7.842;2023-02-05T00:05:33;5.10;99.90
17697;DHT22;8967;47.984;7.842;2023-02-05T00:08:00;5.10;99.90
17697;DHT22;8967;47.984;7.842;2023-02-05T00:10:27;5.00;99.90
17697;DHT22;8967;47.984;7.842;2023-02-05T00:12:54;5.00;99.90
17697;DHT22;8967;47.984;7.842;2023-02-05T00:15:21;5.00;99.90
17697;DHT22;8967;47.984;7.842;2023-02-05T00:17:49;5.00;99.90
17697;DHT22;8967;47.984;7.842;2023-02-05T00:20:16;5.00;99.90
17697;DHT22;8967;47.984;7.842;2023-02-05T00:22:43;5.00;99.90
17697;DHT22;8967;47.984;7.842;2023-02-05T00:25:10;5.00;99.90
17697;DHT22;8967;47.984;7.842;2023-02-05T00:27:37;5.00;99.90
17697;DHT22;8967;47.984;7.842;2023-02-05T00:30:04;5.00;99.90
17697;DHT22;8967;47.984;7.842;2023-02-05T00:32:34;5.00;99.90
17697;DHT22;8967;47.984;7.842;2023-02-05T00:35:03;5.00;99.90
17697;DHT22;8967;47.984;7.842;2023-02-05T00:37:30;5.00;99.90
17697;DHT22;8967;47.984;7.842;2023-02-05T00:39:57;5.00;99.90
17697;DHT22;8967;47.984;7.842;2023-02-05T00:42:24;4.90;99.90
17697;DHT22;8967;47.984;7.842;2023-02-05T00:44:51;4.90;99.90
17697;DHT22;8967;47.984;7.842;2023-02-05T00:47:20;4.90;99.90
17697;DHT22;8967;47.984;7.842;2023-02-05T00:49:47;4.80;99.90
17697;DHT22;8967;47.984;7.842;2023-02-05T00:52:15;4.80;99.90
17697;DHT22;8967;47.984;7.842;2023-02-05T00:54:42;4.80;99.90
17697;DHT22;8967;47.984;7.842;2023-02-05T00:57:09;4.70;99.90
17697;DHT22;8967;47.984;7.842;2023-02-05T00:59:36;4.70;99.90
17697;DHT22;8967;47.984;7.842;2023-02-05T01:02:03;4.70;99.90
17697;DHT22;8967;47.984;7.842;2023-02-05T01:04:32;4.70;99.90
17697;DHT22;8967;47.984;7.842;2023-02-05T01:06:59;4.60;99.90
17697;DHT22;8967;47.984;7.842;2023-02-05T01:09:30;4.60;99.90
17697;DHT22;8967;47.984;7.842;2023-02-05T01:11:59;4.60;99.90
17697;DHT22;8967;47.984;7.842;2023-02-05T01:14:26;4.60;99.90
17697;DHT22;8967;47.984;7.842;2023-02-05T01:16:53;4.60;99.90
17697;DHT22;8967;47.984;7.842;2023-02-05T01:19:20;4.60;99.90
17697;DHT22;8967;47.984;7.842;2023-02-05T01:21:49;4.60;99.90
17697;DHT22;8967;47.984;7.842;2023-02-05T01:24:16;4.60;99.90
17697;DHT22;8967;47.984;7.842;2023-02-05T01:26:44;4.60;99.90
17697;DHT22;8967;47.984;7.842;2023-02-05T01:29:13;4.60;99.90
17697;DHT22;8967;47.984;7.842;2023-02-05T01:31:39;4.60;99.90
17697;DHT22;8967;47.984;7.842;2023-02-05T01:34:06;4.60;99.90
17697;DHT22;8967;47.984;7.842;2023-02-05T01:36:33;4.60;99.90
17697;DHT22;8967;47.984;7.842;2023-02-05T01:39:00;4.60;99.90
17697;DHT22;8967;47.984;7.842;2023-02-05T01:41:27;4.60;99.90
17697;DHT22;8967;47.984;7.842;2023-02-05T01:44:08;4.60;99.90
17697;DHT22;8967;47.984;7.842;2023-02-05T01:46:36;4.60;99.90
17697;DHT22;8967;47.984;7.842;2023-02-05T01:49:05;4.50;99.90
17697;DHT22;8967;47.984;7.842;2023-02-05T01:51:36;4.50;99.90
17697;DHT22;8967;47.984;7.842;2023-02-05T01:54:04;4.50;99.90
17697;DHT22;8967;47.984;7.842;2023-02-05T01:56:35;4.50;99.90
17697;DHT22;8967;47.984;7.842;2023-02-05T01:59:09;4.40;99.90
17697;DHT22;8967;47.984;7.842;2023-02-05T02:01:38;4.40;99.90
17697;DHT22;8967;47.984;7.842;2023-02-05T02:04:05;4.40;99.90
17697;DHT22;8967;47.984;7.842;2023-02-05T02:06:34;4.40;99.90
17697;DHT22;8967;47.984;7.842;2023-02-05T02:09:02;4.40;99.90
17697;DHT22;8967;47.984;7.842;2023-02-05T02:11:31;4.40;99.90
17697;DHT22;8967;47.984;7.842;2023-02-05T02:14:02;4.40;99.90
17697;DHT22;8967;47.984;7.842;2023-02-05T02:16:32;4.40;99.90
17697;DHT22;8967;47.984;7.842;2023-02-05T02:19:01;4.40;99.90
17697;DHT22;8967;47.984;7.842;2023-02-05T02:21:44;4.30;99.90
17697;DHT22;8967;47.984;7.842;2023-02-05T02:27:36;4.30;99.90
17697;DHT22;8967;47.984;7.842;2023-02-05T02:30:08;4.30;99.90
17697;DHT22;8967;47.984;7.842;2023-02-05T02:32:38;4.30;99.90
17697;DHT22;8967;47.984;7.842;2023-02-05T02:35:09;4.30;99.90
17697;DHT22;8967;47.984;7.842;2023-02-05T02:37:43;4.20;99.90
17697;DHT22;8967;47.984;7.842;2023-02-05T02:40:17;4.20;99.90
17697;DHT22;8967;47.984;7.842;2023-02-05T02:42:53;4.20;99.90
17697;DHT22;8967;47.984;7.842;2023-02-05T02:45:25;4.20;99.90
17697;DHT22;8967;47.984;7.842;2023-02-05T02:47:56;4.20;99.90
17697;DHT22;8967;47.984;7.842;2023-02-05T02:50:27;4.20;99.90
17697;DHT22;8967;47.984;7.842;2023-02-05T02:53:01;4.10;99.90
17697;DHT22;8967;47.984;7.842;2023-02-05T02:55:34;4.10;99.90
17697;DHT22;8967;47.984;7.842;2023-02-05T02:58:08;4.10;99.90
17697;DHT22;8967;47.984;7.842;2023-02-05T03:00:39;4.10;99.90
17697;DHT22;8967;47.984;7.842;2023-02-05T03:03:08;4.10;99.90
17697;DHT22;8967;47.984;7.842;2023-02-05T03:05:38;4.10;99.90
17697;DHT22;8967;47.984;7.842;2023-02-05T03:08:11;4.10;99.90
17697;DHT22;8967;47.984;7.842;2023-02-05T03:10:44;4.10;99.90
17697;DHT22;8967;47.984;7.842;2023-02-05T03:13:14;4.00;99.90
17697;DHT22;8967;47.984;7.842;2023-02-05T03:15:48;4.00;99.90
17697;DHT22;8967;47.984;7.842;2023-02-05T03:18:17;4.00;99.90
17697;DHT22;8967;47.984;7.842;2023-02-05T03:20:48;4.00;99.90
17697;DHT22;8967;47.984;7.842;2023-02-05T03:23:17;4.00;99.90
17697;DHT22;8967;47.984;7.842;2023-02-05T03:25:44;4.00;99.90
17697;DHT22;8967;47.984;7.842;2023-02-05T03:28:14;4.00;99.90
17697;DHT22;8967;47.984;7.842;2023-02-05T03:30:51;3.90;99.90
17697;DHT22;8967;47.984;7.842;2023-02-05T03:33:33;3.90;99.90
17697;DHT22;8967;47.984;7.842;2023-02-05T03:36:10;3.90;99.90
17697;DHT22;8967;47.984;7.842;2023-02-05T03:38:51;3.90;99.90
17697;DHT22;8967;47.984;7.842;2023-02-05T03:41:33;3.90;99.90
17697;DHT22;8967;47.984;7.842;2023-02-05T03:44:30;3.90;99.90
17697;DHT22;8967;47.984;7.842;2023-02-05T03:47:02;3.90;99.90
17697;DHT22;8967;47.984;7.842;2023-02-05T03:49:41;3.80;99.90
17697;DHT22;8967;47.984;7.842;2023-02-05T03:52:24;3.80;99.90
17697;DHT22;8967;47.984;7.842;2023-02-05T03:55:02;3.80;99.90
17697;DHT22;8967;47.984;7.842;2023-02-05T03:57:37;3.80;99.90
17697;DHT22;8967;47.984;7.842;2023-02-05T04:00:08;3.80;99.90
17697;DHT22;8967;47.984;7.842;2023-02-05T04:02:44;3.90;99.90
17697;DHT22;8967;47.984;7.842;2023-02-05T04:05:16;3.90;99.90
17697;DHT22;8967;47.984;7.842;2023-02-05T04:07:46;3.90;99.90
17697;DHT22;8967;47.984;7.842;2023-02-05T04:10:14;3.90;99.90
17697;DHT22;8967;47.984;7.842;2023-02-05T04:12:43;3.90;99.90
17697;DHT22;8967;47.984;7.842;2023-02-05T04:15:11;3.90;99.90
17697;DHT22;8967;47.984;7.842;2023-02-05T04:17:43;3.90;99.90
17697;DHT22;8967;47.984;7.842;2023-02-05T04:20:10;3.90;99.90
17697;DHT22;8967;47.984;7.842;2023-02-05T04:22:40;3.90;99.90
17697;DHT22;8967;47.984;7.842;2023-02-05T04:25:07;3.90;99.90
17697;DHT22;8967;47.984;7.842;2023-02-05T04:27:34;3.80;99.90
17697;DHT22;8967;47.984;7.842;2023-02-05T04:30:03;3.80;99.90
17697;DHT22;8967;47.984;7.842;2023-02-05T04:32:35;3.80;99.90
17697;DHT22;8967;47.984;7.842;2023-02-05T04:35:02;3.80;99.90
17697;DHT22;8967;47.984;7.842;2023-02-05T04:37:29;3.80;99.90
17697;DHT22;8967;47.984;7.842;2023-02-05T04:39:56;3.80;99.90
17697;DHT22;8967;47.984;7.842;2023-02-05T04:42:23;3.80;99.90
17697;DHT22;8967;47.984;7.842;2023-02-05T04:44:50;3.80;99.90
17697;DHT22;8967;47.984;7.842;2023-02-05T04:47:17;3.80;99.90
17697;DHT22;8967;47.984;7.842;2023-02-05T04:49:45;3.80;99.90
17697;DHT22;8967;47.984;7.842;2023-02-05T04:52:12;3.80;99.90
17697;DHT22;8967;47.984;7.842;2023-02-05T04:54:39;3.80;99.90
17697;DHT22;8967;47.984;7.842;2023-02-05T04:57:06;3.90;99.90
17697;DHT22;8967;47.984;7.842;2023-02-05T04:59:35;3.90;99.90
17697;DHT22;8967;47.984;7.842;2023-02-05T05:02:02;3.90;99.90
17697;DHT22;8967;47.984;7.842;2023-02-05T05:04:28;4.00;99.90
17697;DHT22;8967;47.984;7.842;2023-02-05T05:06:57;4.00;99.90
17697;DHT22;8967;47.984;7.842;2023-02-05T05:09:26;4.00;99.90
17697;DHT22;8967;47.984;7.842;2023-02-05T05:11:54;4.00;99.90
17697;DHT22;8967;47.984;7.842;2023-02-05T05:14:21;4.00;99.90
17697;DHT22;8967;47.984;7.842;2023-02-05T05:16:48;4.10;99.90
17697;DHT22;8967;47.984;7.842;2023-02-05T05:19:15;4.10;99.90
17697;DHT22;8967;47.984;7.842;2023-02-05T05:21:42;4.10;99.90
17697;DHT22;8967;47.984;7.842;2023-02-05T05:24:10;4.10;99.90
17697;DHT22;8967;47.984;7.842;2023-02-05T05:26:39;4.10;99.90
17697;DHT22;8967;47.984;7.842;2023-02-05T05:29:09;4.10;99.90
17697;DHT22;8967;47.984;7.842;2023-02-05T05:31:36;4.10;99.90
17697;DHT22;8967;47.984;7.842;2023-02-05T05:34:05;4.10;99.90
17697;DHT22;8967;47.984;7.842;2023-02-05T05:36:32;4.10;99.90
17697;DHT22;8967;47.984;7.842;2023-02-05T05:38:59;4.10;99.90
17697;DHT22;8967;47.984;7.842;2023-02-05T05:41:47;4.10;99.90
17697;DHT22;8967;47.984;7.842;2023-02-05T05:44:32;4.20;99.90
17697;DHT22;8967;47.984;7.842;2023-02-05T05:46:59;4.20;99.90
17697;DHT22;8967;47.984;7.842;2023-02-05T05:49:25;4.20;99.90
17697;DHT22;8967;47.984;7.842;2023-02-05T05:51:52;4.30;99.90
17697;DHT22;8967;47.984;7.842;2023-02-05T05:54:21;4.30;99.90
17697;DHT22;8967;47.984;7.842;2023-02-05T05:56:50;4.30;99.90
17697;DHT22;8967;47.984;7.842;2023-02-05T05:59:16;4.30;99.90
17697;DHT22;8967;47.984;7.842;2023-02-05T06:01:45;4.30;99.90
17697;DHT22;8967;47.984;7.842;2023-02-05T06:04:12;4.30;99.90
17697;DHT22;8967;47.984;7.842;2023-02-05T06:06:39;4.40;99.90
17697;DHT22;8967;47.984;7.842;2023-02-05T06:09:07;4.40;99.90
17697;DHT22;8967;47.984;7.842;2023-02-05T06:11:33;4.30;99.90
17697;DHT22;8967;47.984;7.842;2023-02-05T06:14:02;4.40;99.90
17697;DHT22;8967;47.984;7.842;2023-02-05T06:16:29;4.30;99.90
17697;DHT22;8967;47.984;7.842;2023-02-05T06:18:56;4.40;99.90
17697;DHT22;8967;47.984;7.842;2023-02-05T06:21:26;4.30;99.90
17697;DHT22;8967;47.984;7.842;2023-02-05T06:23:55;4.30;99.90
17697;DHT22;8967;47.984;7.842;2023-02-05T06:26:22;4.30;99.90
17697;DHT22;8967;47.984;7.842;2023-02-05T06:28:49;4.30;99.90
17697;DHT22;8967;47.984;7.842;2023-02-05T06:31:17;4.30;99.90
17697;DHT22;8967;47.984;7.842;2023-02-05T06:33:46;4.30;99.90
17697;DHT22;8967;47.984;7.842;2023-02-05T06:36:13;4.30;99.90
17697;DHT22;8967;47.984;7.842;2023-02-05T06:38:40;4.30;99.90
17697;DHT22;8967;47.984;7.842;2023-02-05T06:41:09;4.30;99.90
17697;DHT22;8967;47.984;7.842;2023-02-05T06:43:35;4.30;99.90
17697;DHT22;8967;47.984;7.842;2023-02-05T06:46:03;4.30;99.90
17697;DHT22;8967;47.984;7.842;2023-02-05T06:48:31;4.30;99.90
17697;DHT22;8967;47.984;7.842;2023-02-05T06:50:58;4.30;99.90
17697;DHT22;8967;47.984;7.842;2023-02-05T06:53:25;4.30;99.90
17697;DHT22;8967;47.984;7.842;2023-02-05T06:55:51;4.30;99.90
17697;DHT22;8967;47.984;7.842;2023-02-05T06:58:18;4.30;99.90
17697;DHT22;8967;47.984;7.842;2023-02-05T07:00:45;4.30;99.90
17697;DHT22;8967;47.984;7.842;2023-02-05T07:03:12;4.30;99.90
17697;DHT22;8967;47.984;7.842;2023-02-05T07:05:42;4.30;99.90
17697;DHT22;8967;47.984;7.842;2023-02-05T07:08:09;4.30;99.90
17697;DHT22;8967;47.984;7.842;2023-02-05T07:10:36;4.30;99.90
17697;DHT22;8967;47.984;7.842;2023-02-05T07:13:03;4.40;99.90
17697;DHT22;8967;47.984;7.842;2023-02-05T07:15:30;4.40;99.90
17697;DHT22;8967;47.984;7.842;2023-02-05T07:17:57;4.30;99.90
17697;DHT22;8967;47.984;7.842;2023-02-05T07:20:23;4.40;99.90
17697;DHT22;8967;47.984;7.842;2023-02-05T07:22:52;4.40;99.90
17697;DHT22;8967;47.984;7.842;2023-02-05T07:25:19;4.40;99.90
17697;DHT22;8967;47.984;7.842;2023-02-05T07:27:48;4.40;99.90
17697;DHT22;8967;47.984;7.842;2023-02-05T07:30:15;4.40;99.90
17697;DHT22;8967;47.984;7.842;2023-02-05T07:32:42;4.40;99.90
17697;DHT22;8967;47.984;7.842;2023-02-05T07:35:08;4.40;99.90
17697;DHT22;8967;47.984;7.842;2023-02-05T07:37:35;4.40;99.90
17697;DHT22;8967;47.984;7.842;2023-02-05T07:40:08;4.40;99.90
17697;DHT22;8967;47.984;7.842;2023-02-05T07:42:35;4.40;99.90
17697;DHT22;8967;47.984;7.842;2023-02-05T07:45:07;4.40;99.90
17697;DHT22;8967;47.984;7.842;2023-02-05T07:47:36;4.40;99.90
17697;DHT22;8967;47.984;7.842;2023-02-05T07:50:04;4.50;99.90
17697;DHT22;8967;47.984;7.842;2023-02-05T07:52:33;4.50;99.90
17697;DHT22;8967;47.984;7.842;2023-02-05T07:55:00;4.50;99.90
17697;DHT22;8967;47.984;7.842;2023-02-05T07:57:29;4.50;99.90
17697;DHT22;8967;47.984;7.842;2023-02-05T07:59:55;4.50;99.90
17697;DHT22;8967;47.984;7.842;2023-02-05T08:02:23;4.50;99.90
17697;DHT22;8967;47.984;7.842;2023-02-05T08:04:52;4.50;99.90
17697;DHT22;8967;47.984;7.842;2023-02-05T08:07:19;4.50;99.90
17697;DHT22;8967;47.984;7.842;2023-02-05T08:09:46;4.50;99.90
17697;DHT22;8967;47.984;7.842;2023-02-05T08:12:15;4.50;99.90
17697;DHT22;8967;47.984;7.842;2023-02-05T08:14:45;4.50;99.90
17697;DHT22;8967;47.984;7.842;2023-02-05T08:17:12;4.50;99.90
17697;DHT22;8967;47.984;7.842;2023-02-05T08:19:39;4.60;99.90
17697;DHT22;8967;47.984;7.842;2023-02-05T08:22:06;4.60;99.90
17697;DHT22;8967;47.984;7.842;2023-02-05T08:24:33;4.60;99.90
17697;DHT22;8967;47.984;7.842;2023-02-05T08:27:00;4.70;99.90
17697;DHT22;8967;47.984;7.842;2023-02-05T08:29:28;4.70;99.90
17697;DHT22;8967;47.984;7.842;2023-02-05T08:31:56;4.70;99.90
17697;DHT22;8967;47.984;7.842;2023-02-05T08:34:23;4.80;99.90
17697;DHT22;8967;47.984;7.842;2023-02-05T08:36:52;4.80;99.90
17697;DHT22;8967;47.984;7.842;2023-02-05T08:39:19;4.80;99.90
17697;DHT22;8967;47.984;7.842;2023-02-05T08:41:46;4.80;99.90
17697;DHT22;8967;47.984;7.842;2023-02-05T08:44:13;4.80;99.90
17697;DHT22;8967;47.984;7.842;2023-02-05T08:46:39;4.80;99.90
17697;DHT22;8967;47.984;7.842;2023-02-05T08:49:10;4.80;99.90
17697;DHT22;8967;47.984;7.842;2023-02-05T08:51:37;4.80;99.90
17697;DHT22;8967;47.984;7.842;2023-02-05T08:54:04;4.80;99.90
17697;DHT22;8967;47.984;7.842;2023-02-05T08:56:33;4.80;99.90
17697;DHT22;8967;47.984;7.842;2023-02-05T08:59:00;4.80;99.90
17697;DHT22;8967;47.984;7.842;2023-02-05T09:01:28;4.80;99.90
17697;DHT22;8967;47.984;7.842;2023-02-05T09:03:54;4.90;99.90
17697;DHT22;8967;47.984;7.842;2023-02-05T09:06:23;4.90;99.90
17697;DHT22;8967;47.984;7.842;2023-02-05T09:08:52;4.90;99.90
17697;DHT22;8967;47.984;7.842;2023-02-05T09:11:22;4.90;99.90
17697;DHT22;8967;47.984;7.842;2023-02-05T09:13:51;4.90;99.90
17697;DHT22;8967;47.984;7.842;2023-02-05T09:16:18;5.00;99.90
17697;DHT22;8967;47.984;7.842;2023-02-05T09:18:45;5.00;99.90
17697;DHT22;8967;47.984;7.842;2023-02-05T09:21:12;5.00;99.90
17697;DHT22;8967;47.984;7.842;2023-02-05T09:23:40;5.00;99.90
17697;DHT22;8967;47.984;7.842;2023-02-05T09:26:07;5.10;99.90
17697;DHT22;8967;47.984;7.842;2023-02-05T09:28:35;5.10;99.90
17697;DHT22;8967;47.984;7.842;2023-02-05T09:31:05;5.10;99.90
17697;DHT22;8967;47.984;7.842;2023-02-05T09:33:32;5.10;99.90
17697;DHT22;8967;47.984;7.842;2023-02-05T09:36:04;5.10;99.90
17697;DHT22;8967;47.984;7.842;2023-02-05T09:38:31;5.10;99.90
17697;DHT22;8967;47.984;7.842;2023-02-05T09:41:03;5.10;99.90
17697;DHT22;8967;47.984;7.842;2023-02-05T09:43:43;5.10;99.90
17697;DHT22;8967;47.984;7.842;2023-02-05T09:46:19;5.20;99.90
17697;DHT22;8967;47.984;7.842;2023-02-05T09:48:55;5.20;99.90
17697;DHT22;8967;47.984;7.842;2023-02-05T09:51:31;5.20;99.90
17697;DHT22;8967;47.984;7.842;2023-02-05T09:54:06;5.20;99.90
17697;DHT22;8967;47.984;7.842;2023-02-05T09:56:38;5.20;99.90
17697;DHT22;8967;47.984;7.842;2023-02-05T09:59:05;5.20;99.90
17697;DHT22;8967;47.984;7.842;2023-02-05T10:01:43;5.30;99.90
17697;DHT22;8967;47.984;7.842;2023-02-05T10:04:10;5.20;99.90
17697;DHT22;8967;47.984;7.842;2023-02-05T10:06:58;5.30;99.90
17697;DHT22;8967;47.984;7.842;2023-02-05T10:12:36;5.30;99.90
17697;DHT22;8967;47.984;7.842;2023-02-05T10:15:19;5.30;99.90
17697;DHT22;8967;47.984;7.842;2023-02-05T10:17:58;5.30;99.90
17697;DHT22;8967;47.984;7.842;2023-02-05T10:20:40;5.40;99.90
17697;DHT22;8967;47.984;7.842;2023-02-05T10:23:17;5.40;99.90
17697;DHT22;8967;47.984;7.842;2023-02-05T10:26:07;5.40;99.90
17697;DHT22;8967;47.984;7.842;2023-02-05T10:31:39;5.30;99.90
17697;DHT22;8967;47.984;7.842;2023-02-05T10:34:16;5.40;99.90
17697;DHT22;8967;47.984;7.842;2023-02-05T10:36:44;5.30;99.90
17697;DHT22;8967;47.984;7.842;2023-02-05T10:39:17;5.40;99.90
17697;DHT22;8967;47.984;7.842;2023-02-05T10:41:48;5.30;99.90
17697;DHT22;8967;47.984;7.842;2023-02-05T10:44:23;5.40;99.90
17697;DHT22;8967;47.984;7.842;2023-02-05T10:46:55;5.40;99.90
17697;DHT22;8967;47.984;7.842;2023-02-05T10:49:25;5.40;99.90
17697;DHT22;8967;47.984;7.842;2023-02-05T10:51:57;5.40;99.90
17697;DHT22;8967;47.984;7.842;2023-02-05T10:54:27;5.40;99.90
17697;DHT22;8967;47.984;7.842;2023-02-05T10:56:54;5.50;99.90
17697;DHT22;8967;47.984;7.842;2023-02-05T10:59:27;5.50;99.90
17697;DHT22;8967;47.984;7.842;2023-02-05T11:01:56;5.50;99.90
17697;DHT22;8967;47.984;7.842;2023-02-05T11:04:30;5.50;99.90
17697;DHT22;8967;47.984;7.842;2023-02-05T11:07:01;5.50;99.90
17697;DHT22;8967;47.984;7.842;2023-02-05T11:09:32;5.50;99.90
17697;DHT22;8967;47.984;7.842;2023-02-05T11:12:02;5.50;99.90
17697;DHT22;8967;47.984;7.842;2023-02-05T11:14:33;5.50;99.90
17697;DHT22;8967;47.984;7.842;2023-02-05T11:17:07;5.50;99.90
17697;DHT22;8967;47.984;7.842;2023-02-05T11:19:34;5.50;99.90
17697;DHT22;8967;47.984;7.842;2023-02-05T11:22:03;5.60;99.90
17697;DHT22;8967;47.984;7.842;2023-02-05T11:24:33;5.60;99.90
17697;DHT22;8967;47.984;7.842;2023-02-05T11:27:25;5.60;99.90
17697;DHT22;8967;47.984;7.842;2023-02-05T11:29:55;5.70;99.90
17697;DHT22;8967;47.984;7.842;2023-02-05T11:32:31;5.70;99.90
17697;DHT22;8967;47.984;7.842;2023-02-05T11:35:18;5.70;99.90
17697;DHT22;8967;47.984;7.842;2023-02-05T11:37:49;5.70;99.90
17697;DHT22;8967;47.984;7.842;2023-02-05T11:40:21;5.70;99.90
17697;DHT22;8967;47.984;7.842;2023-02-05T11:42:59;5.70;99.90
17697;DHT22;8967;47.984;7.842;2023-02-05T11:45:30;5.80;99.90
17697;DHT22;8967;47.984;7.842;2023-02-05T11:48:00;5.80;99.90
17697;DHT22;8967;47.984;7.842;2023-02-05T11:50:29;5.80;99.90
17697;DHT22;8967;47.984;7.842;2023-02-05T11:53:08;5.90;99.90
17697;DHT22;8967;47.984;7.842;2023-02-05T11:55:39;5.90;99.90
17697;DHT22;8967;47.984;7.842;2023-02-05T11:58:21;5.90;99.90
17697;DHT22;8967;47.984;7.842;2023-02-05T12:00:56;5.90;99.90
17697;DHT22;8967;47.984;7.842;2023-02-05T12:03:25;6.00;99.90
17697;DHT22;8967;47.984;7.842;2023-02-05T12:05:59;6.00;99.90
17697;DHT22;8967;47.984;7.842;2023-02-05T12:08:33;6.00;99.90
17697;DHT22;8967;47.984;7.842;2023-02-05T12:11:17;6.00;99.90
17697;DHT22;8967;47.984;7.842;2023-02-05T12:13:55;6.00;99.90
17697;DHT22;8967;47.984;7.842;2023-02-05T12:16:40;6.00;99.90
17697;DHT22;8967;47.984;7.842;2023-02-05T12:19:16;5.90;99.90
17697;DHT22;8967;47.984;7.842;2023-02-05T12:21:48;5.90;99.90
17697;DHT22;8967;47.984;7.842;2023-02-05T12:24:57;6.00;99.90
17697;DHT22;8967;47.984;7.842;2023-02-05T12:27:40;6.00;99.90
17697;DHT22;8967;47.984;7.842;2023-02-05T12:30:18;5.90;99.90
17697;DHT22;8967;47.984;7.842;2023-02-05T12:33:01;5.90;99.90
17697;DHT22;8967;47.984;7.842;2023-02-05T12:35:42;5.90;99.90
17697;DHT22;8967;47.984;7.842;2023-02-05T12:38:19;5.90;99.90
17697;DHT22;8967;47.984;7.842;2023-02-05T12:40:55;6.00;99.90
17697;DHT22;8967;47.984;7.842;2023-02-05T12:43:34;6.00;99.90
17697;DHT22;8967;47.984;7.842;2023-02-05T12:46:18;6.00;99.90
17697;DHT22;8967;47.984;7.842;2023-02-05T12:49:01;6.00;99.90
17697;DHT22;8967;47.984;7.842;2023-02-05T12:51:41;6.00;99.90
17697;DHT22;8967;47.984;7.842;2023-02-05T12:54:40;6.00;99.90
17697;DHT22;8967;47.984;7.842;2023-02-05T12:57:10;6.00;99.90
17697;DHT22;8967;47.984;7.842;2023-02-05T12:59:41;6.00;99.90
17697;DHT22;8967;47.984;7.842;2023-02-05T13:02:21;6.00;99.90
17697;DHT22;8967;47.984;7.842;2023-02-05T13:05:05;6.10;99.90
17697;DHT22;8967;47.984;7.842;2023-02-05T13:07:35;6.00;99.90
17697;DHT22;8967;47.984;7.842;2023-02-05T13:10:15;6.00;99.90
17697;DHT22;8967;47.984;7.842;2023-02-05T13:12:47;6.10;99.90
17697;DHT22;8967;47.984;7.842;2023-02-05T13:15:18;6.00;99.90
17697;DHT22;8967;47.984;7.842;2023-02-05T13:17:53;6.10;99.90
17697;DHT22;8967;47.984;7.842;2023-02-05T13:20:26;6.00;99.90
17697;DHT22;8967;47.984;7.842;2023-02-05T13:23:16;6.00;99.90
17697;DHT22;8967;47.984;7.842;2023-02-05T13:26:03;6.00;99.90
17697;DHT22;8967;47.984;7.842;2023-02-05T13:28:49;6.00;99.90
17697;DHT22;8967;47.984;7.842;2023-02-05T13:31:25;6.00;99.90
17697;DHT22;8967;47.984;7.842;2023-02-05T13:33:54;6.00;99.90
17697;DHT22;8967;47.984;7.842;2023-02-05T13:52:19;6.00;99.90
17697;DHT22;8967;47.984;7.842;2023-02-05T13:55:10;6.00;99.90
17697;DHT22;8967;47.984;7.842;2023-02-05T14:00:46;6.00;99.90
17697;DHT22;8967;47.984;7.842;2023-02-05T14:03:33;6.00;99.90
17697;DHT22;8967;47.984;7.842;2023-02-05T14:06:17;6.00;99.90
17697;DHT22;8967;47.984;7.842;2023-02-05T14:08:57;6.00;99.90
17697;DHT22;8967;47.984;7.842;2023-02-05T14:11:25;6.00;99.90
17697;DHT22;8967;47.984;7.842;2023-02-05T14:14:24;6.00;99.90
17697;DHT22;8967;47.984;7.842;2023-02-05T14:16:52;6.00;99.90
17697;DHT22;8967;47.984;7.842;2023-02-05T14:19:26;6.10;99.90
17697;DHT22;8967;47.984;7.842;2023-02-05T14:22:36;6.10;99.90
17697;DHT22;8967;47.984;7.842;2023-02-05T14:28:42;6.10;99.90
17697;DHT22;8967;47.984;7.842;2023-02-05T14:31:46;6.10;99.90
17697;DHT22;8967;47.984;7.842;2023-02-05T14:37:27;6.10;99.90
17697;DHT22;8967;47.984;7.842;2023-02-05T14:39:57;6.10;99.90
17697;DHT22;8967;47.984;7.842;2023-02-05T14:42:26;6.10;99.90
17697;DHT22;8967;47.984;7.842;2023-02-05T14:44:56;6.10;99.90
17697;DHT22;8967;47.984;7.842;2023-02-05T14:47:29;6.10;99.90
17697;DHT22;8967;47.984;7.842;2023-02-05T14:50:02;6.20;99.90
17697;DHT22;8967;47.984;7.842;2023-02-05T14:52:33;6.20;99.90
17697;DHT22;8967;47.984;7.842;2023-02-05T14:55:06;6.20;99.90
17697;DHT22;8967;47.984;7.842;2023-02-05T14:57:45;6.20;99.90
17697;DHT22;8967;47.984;7.842;2023-02-05T15:00:29;6.20;99.90
17697;DHT22;8967;47.984;7.842;2023-02-05T15:03:29;6.20;99.90
17697;DHT22;8967;47.984;7.842;2023-02-05T15:06:04;6.20;99.90
17697;DHT22;8967;47.984;7.842;2023-02-05T15:08:50;6.20;99.90
17697;DHT22;8967;47.984;7.842;2023-02-05T15:11:24;6.20;99.90
17697;DHT22;8967;47.984;7.842;2023-02-05T15:14:25;6.20;99.90
17697;DHT22;8967;47.984;7.842;2023-02-05T15:17:38;6.20;99.90
17697;DHT22;8967;47.984;7.842;2023-02-05T15:20:18;6.20;99.90
17697;DHT22;8967;47.984;7.842;2023-02-05T15:22:51;6.20;99.90
17697;DHT22;8967;47.984;7.842;2023-02-05T15:25:31;6.20;99.90
17697;DHT22;8967;47.984;7.842;2023-02-05T15:28:05;6.20;99.90
17697;DHT22;8967;47.984;7.842;2023-02-05T15:30:51;6.20;99.90
17697;DHT22;8967;47.984;7.842;2023-02-05T15:33:28;6.20;99.90
17697;DHT22;8967;47.984;7.842;2023-02-05T15:35:59;6.20;99.90
17697;DHT22;8967;47.984;7.842;2023-02-05T15:38:32;6.20;99.90
17697;DHT22;8967;47.984;7.842;2023-02-05T15:41:05;6.20;99.90
17697;DHT22;8967;47.984;7.842;2023-02-05T15:43:33;6.20;99.90
17697;DHT22;8967;47.984;7.842;2023-02-05T15:46:01;6.20;99.90
17697;DHT22;8967;47.984;7.842;2023-02-05T15:48:31;6.20;99.90
17697;DHT22;8967;47.984;7.842;2023-02-05T15:51:04;6.20;99.90
17697;DHT22;8967;47.984;7.842;2023-02-05T15:53:39;6.20;99.90
17697;DHT22;8967;47.984;7.842;2023-02-05T15:56:11;6.20;99.90
17697;DHT22;8967;47.984;7.842;2023-02-05T15:58:45;6.20;99.90
17697;DHT22;8967;47.984;7.842;2023-02-05T16:01:22;6.20;99.90
17697;DHT22;8967;47.984;7.842;2023-02-05T16:03:49;6.20;99.90
17697;DHT22;8967;47.984;7.842;2023-02-05T16:06:20;6.10;99.90
17697;DHT22;8967;47.984;7.842;2023-02-05T16:08:49;6.10;99.90
17697;DHT22;8967;47.984;7.842;2023-02-05T16:11:25;6.00;99.90
17697;DHT22;8967;47.984;7.842;2023-02-05T16:14:04;6.10;99.90
17697;DHT22;8967;47.984;7.842;2023-02-05T16:16:32;6.00;99.90
17697;DHT22;8967;47.984;7.842;2023-02-05T16:19:02;6.00;99.90
17697;DHT22;8967;47.984;7.842;2023-02-05T16:21:41;6.00;99.90
17697;DHT22;8967;47.984;7.842;2023-02-05T16:24:19;6.00;99.90
17697;DHT22;8967;47.984;7.842;2023-02-05T16:26:53;6.00;99.90
17697;DHT22;8967;47.984;7.842;2023-02-05T16:29:28;6.00;99.90
17697;DHT22;8967;47.984;7.842;2023-02-05T16:32:02;6.00;99.90
17697;DHT22;8967;47.984;7.842;2023-02-05T16:34:33;6.00;99.90
17697;DHT22;8967;47.984;7.842;2023-02-05T16:37:04;5.90;99.90
17697;DHT22;8967;47.984;7.842;2023-02-05T16:39:37;5.90;99.90
17697;DHT22;8967;47.984;7.842;2023-02-05T16:42:06;5.90;99.90
17697;DHT22;8967;47.984;7.842;2023-02-05T16:44:36;5.90;99.90
17697;DHT22;8967;47.984;7.842;2023-02-05T16:47:09;5.90;99.90
17697;DHT22;8967;47.984;7.842;2023-02-05T16:49:37;5.80;99.90
17697;DHT22;8967;47.984;7.842;2023-02-05T16:52:27;5.80;99.90
17697;DHT22;8967;47.984;7.842;2023-02-05T16:54:56;5.80;99.90
17697;DHT22;8967;47.984;7.842;2023-02-05T16:57:29;5.80;99.90
17697;DHT22;8967;47.984;7.842;2023-02-05T16:59:58;5.80;99.90
17697;DHT22;8967;47.984;7.842;2023-02-05T17:02:31;5.80;99.90
17697;DHT22;8967;47.984;7.842;2023-02-05T17:05:01;5.80;99.90
17697;DHT22;8967;47.984;7.842;2023-02-05T17:07:31;5.80;99.90